createdAt,value
2024-01-21T00:00:04.411Z,965.42
2024-01-21T00:01:04.796Z,965.40
2024-01-21T00:02:03.960Z,965.44
2024-01-21T00:03:03.982Z,965.34
2024-01-21T00:04:04.097Z,965.32
2024-01-21T00:05:03.903Z,965.45
2024-01-21T00:06:03.993Z,965.42
2024-01-21T00:07:03.865Z,965.36
2024-01-21T00:08:03.871Z,965.31
2024-01-21T00:09:03.911Z,965.30
2024-01-21T00:10:03.840Z,965.33
2024-01-21T00:11:03.829Z,965.33
2024-01-21T00:12:03.898Z,965.33
2024-01-21T00:13:03.784Z,965.30
2024-01-21T00:14:03.790Z,965.29
2024-01-21T00:15:03.759Z,965.33
2024-01-21T00:16:03.775Z,965.31
2024-01-21T00:17:03.811Z,965.31
2024-01-21T00:18:03.903Z,965.27
2024-01-21T00:19:03.802Z,965.27
2024-01-21T00:20:03.726Z,965.28
2024-01-21T00:21:03.692Z,965.26
2024-01-21T00:22:03.749Z,965.25
2024-01-21T00:23:03.664Z,965.22
2024-01-21T00:24:03.659Z,965.24
2024-01-21T00:25:03.632Z,965.25
2024-01-21T00:26:03.623Z,965.38
2024-01-21T00:27:03.642Z,965.25
2024-01-21T00:28:03.602Z,965.26
2024-01-21T00:29:03.627Z,965.19
2024-01-21T00:30:03.586Z,965.25
2024-01-21T00:31:03.581Z,965.23
2024-01-21T00:32:03.619Z,965.23
2024-01-21T00:33:03.574Z,965.19
2024-01-21T00:34:03.622Z,965.27
2024-01-21T00:35:03.518Z,965.27
2024-01-21T00:36:03.556Z,965.27
2024-01-21T00:37:03.504Z,965.29
2024-01-21T00:38:03.628Z,965.25
2024-01-21T00:39:03.472Z,965.23
2024-01-21T00:40:03.484Z,965.20
2024-01-21T00:41:03.443Z,965.14
2024-01-21T00:42:08.404Z,965.12
2024-01-21T00:43:03.564Z,965.02
2024-01-21T00:44:03.429Z,965.06
2024-01-21T00:45:03.499Z,965.06
2024-01-21T00:46:03.393Z,965.06
2024-01-21T00:47:03.378Z,965.02
2024-01-21T00:48:03.482Z,965.10
2024-01-21T00:49:03.368Z,965.08
2024-01-21T00:50:03.575Z,965.08
2024-01-21T00:51:03.302Z,965.02
2024-01-21T00:52:03.330Z,965.06
2024-01-21T00:53:03.305Z,965.05
2024-01-21T00:54:03.282Z,965.05
2024-01-21T00:55:03.285Z,965.01
2024-01-21T00:56:03.268Z,965.02
2024-01-21T00:57:03.231Z,965.01
2024-01-21T00:58:03.240Z,964.96
2024-01-21T00:59:03.242Z,964.99
2024-01-21T01:00:03.216Z,965.01
2024-01-21T01:01:03.333Z,964.97
2024-01-21T01:02:03.184Z,965.02
2024-01-21T01:03:03.193Z,964.98
2024-01-21T01:04:03.234Z,964.97
2024-01-21T01:05:03.210Z,965.00
2024-01-21T01:06:03.189Z,965.01
2024-01-21T01:07:03.111Z,964.96
2024-01-21T01:08:03.133Z,964.97
2024-01-21T01:09:03.129Z,965.00
2024-01-21T01:10:03.131Z,964.94
2024-01-21T01:11:03.108Z,964.95
2024-01-21T01:12:03.062Z,964.91
2024-01-21T01:13:03.073Z,964.92
2024-01-21T01:14:03.031Z,964.92
2024-01-21T01:15:03.089Z,964.89
2024-01-21T01:16:03.026Z,964.86
2024-01-21T01:17:03.059Z,964.91
2024-01-21T01:18:03.078Z,964.88
2024-01-21T01:19:03.066Z,964.85
2024-01-21T01:20:02.958Z,964.86
2024-01-21T01:21:03.999Z,964.85
2024-01-21T01:22:03.017Z,964.89
2024-01-21T01:23:03.029Z,964.90
2024-01-21T01:24:02.966Z,964.88
2024-01-21T01:25:02.891Z,964.90
2024-01-21T01:26:02.891Z,964.82
2024-01-21T01:27:02.872Z,964.83
2024-01-21T01:28:02.871Z,964.80
2024-01-21T01:29:02.962Z,964.86
2024-01-21T01:30:02.850Z,964.79
2024-01-21T01:31:02.829Z,964.87
2024-01-21T01:32:02.804Z,964.81
2024-01-21T01:33:02.880Z,964.76
2024-01-21T01:34:02.868Z,964.79
2024-01-21T01:35:02.981Z,964.72
2024-01-21T01:36:02.805Z,964.71
2024-01-21T01:37:02.755Z,964.66
2024-01-21T01:38:02.769Z,964.72
2024-01-21T01:39:02.718Z,964.73
2024-01-21T01:40:02.712Z,964.69
2024-01-21T01:41:02.781Z,964.68
2024-01-21T01:42:02.720Z,964.66
2024-01-21T01:43:02.748Z,964.70
2024-01-21T01:44:02.657Z,964.66
2024-01-21T01:45:02.656Z,964.61
2024-01-21T01:46:02.655Z,964.61
2024-01-21T01:47:02.684Z,964.58
2024-01-21T01:48:02.690Z,964.59
2024-01-21T01:49:02.706Z,964.57
2024-01-21T01:50:02.601Z,964.59
2024-01-21T01:51:02.570Z,964.62
2024-01-21T01:52:02.605Z,964.59
2024-01-21T01:53:02.550Z,964.56
2024-01-21T01:54:02.560Z,964.50
2024-01-21T01:55:02.512Z,964.53
2024-01-21T01:56:02.533Z,964.52
2024-01-21T01:57:02.508Z,964.49
2024-01-21T01:58:02.547Z,964.54
2024-01-21T01:59:02.462Z,964.57
2024-01-21T02:00:02.478Z,964.56
2024-01-21T02:01:02.647Z,964.58
2024-01-21T02:02:02.484Z,964.57
2024-01-21T02:03:02.426Z,964.56
2024-01-21T02:04:02.563Z,964.50
2024-01-21T02:05:02.415Z,964.58
2024-01-21T02:06:02.412Z,964.64
2024-01-21T02:07:02.371Z,964.66
2024-01-21T02:08:02.360Z,964.62
2024-01-21T02:09:02.366Z,964.66
2024-01-21T02:10:02.390Z,964.66
2024-01-21T02:11:02.312Z,964.64
2024-01-21T02:12:02.315Z,964.60
2024-01-21T02:13:02.329Z,964.67
2024-01-21T02:14:02.317Z,964.62
2024-01-21T02:15:02.257Z,964.63
2024-01-21T02:16:10.199Z,964.57
2024-01-21T02:17:02.254Z,964.62
2024-01-21T02:18:02.308Z,964.60
2024-01-21T02:19:02.281Z,964.64
2024-01-21T02:20:02.235Z,964.59
2024-01-21T02:21:02.176Z,964.60
2024-01-21T02:22:02.205Z,964.60
2024-01-21T02:23:02.157Z,964.60
2024-01-21T02:24:02.298Z,964.62
2024-01-21T02:25:02.155Z,964.65
2024-01-21T02:26:02.149Z,964.67
2024-01-21T02:27:02.119Z,964.64
2024-01-21T02:28:02.145Z,964.60
2024-01-21T02:29:02.113Z,964.65
2024-01-21T02:30:02.166Z,964.61
2024-01-21T02:31:02.100Z,964.61
2024-01-21T02:32:02.067Z,964.63
2024-01-21T02:33:02.078Z,964.61
2024-01-21T02:34:02.161Z,964.64
2024-01-21T02:35:02.023Z,964.58
2024-01-21T02:36:02.062Z,964.59
2024-01-21T02:37:01.985Z,964.50
2024-01-21T02:38:01.996Z,964.50
2024-01-21T02:39:01.986Z,964.53
2024-01-21T02:40:01.991Z,964.54
2024-01-21T02:41:02.008Z,964.58
2024-01-21T02:42:01.982Z,964.47
2024-01-21T02:43:01.896Z,964.46
2024-01-21T02:44:01.900Z,964.55
2024-01-21T02:45:01.886Z,964.44
2024-01-21T02:46:01.890Z,964.41
2024-01-21T02:47:01.849Z,964.44
2024-01-21T02:48:01.959Z,964.41
2024-01-21T02:49:01.939Z,964.35
2024-01-21T02:50:01.832Z,964.40
2024-01-21T02:51:01.804Z,964.35
2024-01-21T02:52:01.821Z,964.34
2024-01-21T02:53:01.790Z,964.23
2024-01-21T02:54:02.107Z,964.28
2024-01-21T02:55:01.769Z,964.25
2024-01-21T02:56:01.752Z,964.24
2024-01-21T02:57:01.739Z,964.22
2024-01-21T02:58:01.719Z,964.19
2024-01-21T02:59:01.709Z,964.19
2024-01-21T03:00:01.808Z,964.19
2024-01-21T03:01:01.937Z,964.17
2024-01-21T03:02:01.690Z,964.15
2024-01-21T03:03:01.841Z,964.14
2024-01-21T03:04:01.726Z,964.19
2024-01-21T03:05:01.719Z,964.22
2024-01-21T03:06:02.087Z,964.19
2024-01-21T03:07:01.614Z,964.17
2024-01-21T03:08:01.632Z,964.16
2024-01-21T03:09:01.605Z,964.19
2024-01-21T03:10:01.633Z,964.22
2024-01-21T03:11:01.601Z,964.23
2024-01-21T03:12:01.643Z,964.22
2024-01-21T03:13:01.524Z,964.23
2024-01-21T03:14:02.077Z,964.23
2024-01-21T03:15:01.521Z,964.19
2024-01-21T03:16:01.515Z,964.18
2024-01-21T03:17:01.494Z,964.22
2024-01-21T03:18:01.585Z,964.15
2024-01-21T03:19:01.617Z,964.15
2024-01-21T03:20:01.669Z,964.20
2024-01-21T03:21:01.435Z,964.18
2024-01-21T03:22:01.526Z,964.16
2024-01-21T03:23:01.451Z,964.16
2024-01-21T03:24:01.425Z,964.18
2024-01-21T03:25:01.439Z,964.17
2024-01-21T03:26:01.451Z,964.18
2024-01-21T03:27:01.405Z,964.15
2024-01-21T03:28:01.379Z,964.18
2024-01-21T03:29:01.338Z,964.14
2024-01-21T03:30:01.378Z,964.10
2024-01-21T03:31:01.332Z,964.18
2024-01-21T03:32:01.331Z,964.16
2024-01-21T03:33:01.381Z,964.16
2024-01-21T03:34:01.468Z,964.14
2024-01-21T03:35:01.242Z,964.25
2024-01-21T03:36:01.259Z,964.25
2024-01-21T03:37:01.247Z,964.20
2024-01-21T03:38:01.233Z,964.16
2024-01-21T03:39:01.258Z,964.16
2024-01-21T03:40:01.288Z,964.14
2024-01-21T03:41:01.228Z,964.09
2024-01-21T03:42:01.254Z,964.15
2024-01-21T03:43:01.167Z,964.14
2024-01-21T03:44:01.142Z,964.16
2024-01-21T03:45:01.157Z,964.16
2024-01-21T03:46:01.153Z,964.18
2024-01-21T03:47:01.122Z,964.17
2024-01-21T03:48:01.261Z,964.08
2024-01-21T03:49:01.164Z,964.19
2024-01-21T03:50:01.104Z,964.16
2024-01-21T03:51:01.217Z,964.12
2024-01-21T03:52:01.090Z,964.16
2024-01-21T03:53:01.057Z,964.18
2024-01-21T03:54:01.036Z,964.19
2024-01-21T03:55:01.017Z,964.21
2024-01-21T03:56:01.015Z,964.19
2024-01-21T03:57:00.992Z,964.23
2024-01-21T03:58:01.083Z,964.24
2024-01-21T03:59:00.969Z,964.20
2024-01-21T04:00:00.973Z,964.22
2024-01-21T04:01:01.151Z,964.23
2024-01-21T04:02:00.937Z,964.14
2024-01-21T04:03:00.940Z,964.11
2024-01-21T04:04:00.999Z,964.09
2024-01-21T04:05:01.034Z,964.16
2024-01-21T04:06:00.930Z,964.15
2024-01-21T04:07:00.961Z,964.10
2024-01-21T04:08:00.866Z,964.11
2024-01-21T04:09:00.867Z,964.15
2024-01-21T04:10:00.821Z,964.17
2024-01-21T04:11:00.845Z,964.14
2024-01-21T04:12:01.056Z,964.10
2024-01-21T04:13:00.922Z,964.17
2024-01-21T04:14:00.772Z,964.15
2024-01-21T04:15:00.775Z,964.10
2024-01-21T04:16:00.842Z,964.12
2024-01-21T04:17:00.799Z,964.16
2024-01-21T04:18:00.818Z,964.16
2024-01-21T04:19:00.826Z,964.12
2024-01-21T04:20:00.716Z,964.11
2024-01-21T04:21:00.685Z,964.18
2024-01-21T04:22:01.934Z,964.12
2024-01-21T04:23:00.817Z,964.12
2024-01-21T04:24:00.659Z,964.16
2024-01-21T04:25:00.660Z,964.12
2024-01-21T04:26:01.217Z,964.06
2024-01-21T04:27:00.627Z,964.00
2024-01-21T04:28:00.605Z,964.07
2024-01-21T04:29:00.629Z,964.01
2024-01-21T04:30:00.635Z,963.97
2024-01-21T04:31:00.675Z,964.12
2024-01-21T04:32:00.558Z,964.05
2024-01-21T04:33:00.698Z,964.15
2024-01-21T04:34:00.834Z,964.10
2024-01-21T04:35:00.522Z,964.11
2024-01-21T04:36:00.490Z,964.07
2024-01-21T04:37:00.627Z,964.11
2024-01-21T04:38:00.473Z,964.07
2024-01-21T04:39:00.463Z,964.10
2024-01-21T04:40:00.553Z,964.11
2024-01-21T04:41:00.437Z,964.04
2024-01-21T04:42:00.431Z,964.06
2024-01-21T04:43:00.461Z,964.06
2024-01-21T04:44:00.395Z,963.97
2024-01-21T04:45:00.389Z,964.02
2024-01-21T04:46:00.403Z,964.03
2024-01-21T04:47:00.350Z,964.03
2024-01-21T04:48:00.399Z,964.00
2024-01-21T04:49:00.507Z,963.99
2024-01-21T04:50:00.363Z,963.98
2024-01-21T04:51:00.370Z,963.91
2024-01-21T04:52:00.292Z,964.03
2024-01-21T04:53:00.343Z,964.02
2024-01-21T04:54:00.293Z,963.98
2024-01-21T04:55:00.459Z,963.99
2024-01-21T04:56:00.234Z,964.04
2024-01-21T04:57:00.232Z,964.02
2024-01-21T04:58:00.300Z,964.00
2024-01-21T04:59:00.225Z,964.01
2024-01-21T05:00:00.297Z,964.06
2024-01-21T05:01:00.465Z,964.02
2024-01-21T05:02:00.166Z,964.06
2024-01-21T05:03:00.223Z,964.02
2024-01-21T05:04:00.281Z,963.98
2024-01-21T05:05:00.213Z,964.04
2024-01-21T05:06:00.131Z,964.07
2024-01-21T05:07:00.207Z,964.06
2024-01-21T05:08:00.135Z,964.06
2024-01-21T05:09:00.075Z,964.00
2024-01-21T05:10:00.177Z,964.14
2024-01-21T05:11:00.133Z,964.07
2024-01-21T05:12:00.055Z,964.08
2024-01-21T05:13:00.137Z,964.12
2024-01-21T05:14:00.013Z,964.11
2024-01-21T05:15:00.023Z,964.08
2024-01-21T05:16:00.004Z,964.09
2024-01-21T05:16:59.996Z,964.10
2024-01-21T05:18:00.158Z,964.14
2024-01-21T05:19:00.035Z,964.13
2024-01-21T05:19:59.942Z,964.10
2024-01-21T05:20:59.961Z,964.09
2024-01-21T05:21:59.993Z,964.16
2024-01-21T05:22:59.918Z,964.15
2024-01-21T05:23:59.877Z,964.09
2024-01-21T05:24:59.934Z,964.13
2024-01-21T05:25:59.974Z,964.10
2024-01-21T05:26:59.868Z,964.06
2024-01-21T05:27:59.927Z,964.05
2024-01-21T05:28:59.865Z,964.03
2024-01-21T05:29:59.817Z,964.02
2024-01-21T05:30:59.837Z,963.97
2024-01-21T05:31:59.846Z,963.96
2024-01-21T05:32:59.799Z,963.98
2024-01-21T05:33:59.925Z,964.00
2024-01-21T05:34:59.826Z,963.97
2024-01-21T05:35:59.734Z,963.96
2024-01-21T05:37:00.488Z,963.96
2024-01-21T05:37:59.764Z,963.94
2024-01-21T05:38:59.698Z,963.90
2024-01-21T05:40:01.612Z,963.85
2024-01-21T05:40:59.681Z,963.84
2024-01-21T05:41:59.661Z,963.85
2024-01-21T05:42:59.714Z,963.93
2024-01-21T05:43:59.678Z,963.94
2024-01-21T05:44:59.625Z,963.90
2024-01-21T05:45:59.658Z,963.86
2024-01-21T05:46:59.753Z,963.92
2024-01-21T05:47:59.613Z,963.92
2024-01-21T05:48:59.647Z,963.90
2024-01-21T05:49:59.640Z,963.96
2024-01-21T05:50:59.552Z,963.95
2024-01-21T05:51:59.608Z,964.01
2024-01-21T05:52:59.534Z,964.08
2024-01-21T05:53:59.514Z,964.04
2024-01-21T05:54:59.541Z,964.04
2024-01-21T05:55:59.566Z,963.97
2024-01-21T05:56:59.490Z,963.98
2024-01-21T05:57:59.474Z,964.07
2024-01-21T05:58:59.482Z,964.01
2024-01-21T05:59:59.531Z,964.01
2024-01-21T06:00:59.520Z,964.02
2024-01-21T06:01:59.594Z,964.12
2024-01-21T06:02:59.471Z,964.09
2024-01-21T06:03:59.417Z,964.08
2024-01-21T06:04:59.400Z,964.13
2024-01-21T06:05:59.367Z,964.10
2024-01-21T06:06:59.399Z,964.18
2024-01-21T06:07:59.409Z,964.14
2024-01-21T06:08:59.352Z,964.11
2024-01-21T06:09:59.312Z,964.09
2024-01-21T06:10:59.316Z,964.09
2024-01-21T06:11:59.312Z,964.09
2024-01-21T06:12:59.293Z,964.06
2024-01-21T06:13:59.348Z,964.04
2024-01-21T06:14:59.326Z,964.15
2024-01-21T06:15:59.291Z,964.08
2024-01-21T06:16:59.240Z,964.09
2024-01-21T06:17:59.280Z,964.02
2024-01-21T06:19:00.280Z,964.09
2024-01-21T06:19:59.261Z,964.01
2024-01-21T06:20:59.195Z,964.04
2024-01-21T06:21:59.409Z,964.03
2024-01-21T06:22:59.204Z,964.08
2024-01-21T06:23:59.129Z,964.09
2024-01-21T06:24:59.172Z,964.09
2024-01-21T06:25:59.257Z,964.13
2024-01-21T06:26:59.140Z,964.12
2024-01-21T06:27:59.136Z,964.16
2024-01-21T06:28:59.112Z,964.23
2024-01-21T06:29:59.080Z,964.17
2024-01-21T06:30:59.674Z,964.15
2024-01-21T06:31:59.145Z,964.20
2024-01-21T06:33:03.050Z,964.21
2024-01-21T06:33:59.052Z,964.16
2024-01-21T06:34:59.034Z,964.14
2024-01-21T06:35:59.010Z,964.15
2024-01-21T06:36:59.002Z,964.20
2024-01-21T06:37:59.009Z,964.18
2024-01-21T06:38:58.964Z,964.14
2024-01-21T06:40:03.138Z,964.13
2024-01-21T06:40:58.927Z,964.19
2024-01-21T06:41:58.904Z,964.20
2024-01-21T06:42:59.657Z,964.23
2024-01-21T06:43:58.971Z,964.21
2024-01-21T06:44:58.890Z,964.17
2024-01-21T06:45:58.884Z,964.17
2024-01-21T06:46:58.872Z,964.22
2024-01-21T06:47:58.905Z,964.19
2024-01-21T06:48:59.035Z,964.24
2024-01-21T06:49:58.881Z,964.33
2024-01-21T06:50:58.802Z,964.28
2024-01-21T06:51:58.802Z,964.23
2024-01-21T06:52:58.798Z,964.24
2024-01-21T06:53:58.757Z,964.27
2024-01-21T06:54:58.761Z,964.23
2024-01-21T06:55:58.776Z,964.24
2024-01-21T06:56:58.735Z,964.24
2024-01-21T06:57:58.759Z,964.16
2024-01-21T06:58:58.704Z,964.22
2024-01-21T06:59:58.704Z,964.19
2024-01-21T07:00:58.748Z,964.22
2024-01-21T07:01:58.744Z,964.21
2024-01-21T07:02:58.701Z,964.17
2024-01-21T07:03:58.729Z,964.22
2024-01-21T07:04:58.647Z,964.26
2024-01-21T07:05:58.644Z,964.23
2024-01-21T07:06:58.659Z,964.24
2024-01-21T07:07:58.645Z,964.19
2024-01-21T07:08:58.615Z,964.20
2024-01-21T07:09:58.556Z,964.18
2024-01-21T07:10:58.612Z,964.16
2024-01-21T07:11:58.562Z,964.22
2024-01-21T07:12:58.712Z,964.27
2024-01-21T07:13:58.538Z,964.29
2024-01-21T07:14:58.513Z,964.29
2024-01-21T07:15:58.550Z,964.33
2024-01-21T07:16:59.162Z,964.31
2024-01-21T07:17:58.498Z,964.37
2024-01-21T07:18:58.490Z,964.43
2024-01-21T07:19:58.539Z,964.45
2024-01-21T07:20:58.473Z,964.30
2024-01-21T07:21:59.186Z,964.39
2024-01-21T07:22:58.421Z,964.40
2024-01-21T07:23:58.415Z,964.37
2024-01-21T07:24:59.460Z,964.45
2024-01-21T07:25:58.368Z,964.46
2024-01-21T07:26:58.403Z,964.43
2024-01-21T07:27:58.462Z,964.44
2024-01-21T07:28:58.338Z,964.39
2024-01-21T07:29:58.324Z,964.47
2024-01-21T07:30:58.333Z,964.48
2024-01-21T07:31:58.442Z,964.49
2024-01-21T07:33:00.219Z,964.61
2024-01-21T07:33:58.386Z,964.64
2024-01-21T07:34:58.324Z,964.69
2024-01-21T07:35:58.262Z,964.66
2024-01-21T07:36:59.161Z,964.62
2024-01-21T07:37:58.215Z,964.64
2024-01-21T07:38:58.209Z,964.72
2024-01-21T07:39:59.204Z,964.80
2024-01-21T07:40:58.227Z,964.68
2024-01-21T07:41:59.144Z,964.70
2024-01-21T07:42:58.275Z,964.75
2024-01-21T07:43:58.140Z,964.78
2024-01-21T07:44:58.128Z,964.86
2024-01-21T07:45:58.158Z,964.84
2024-01-21T07:46:58.112Z,964.78
2024-01-21T07:47:58.097Z,964.82
2024-01-21T07:48:58.176Z,964.84
2024-01-21T07:49:58.076Z,964.79
2024-01-21T07:50:58.066Z,964.88
2024-01-21T07:51:58.743Z,964.87
2024-01-21T07:52:58.061Z,964.85
2024-01-21T07:53:57.994Z,964.89
2024-01-21T07:54:58.723Z,964.85
2024-01-21T07:55:58.010Z,964.87
2024-01-21T07:56:58.655Z,964.87
2024-01-21T07:57:58.039Z,964.83
2024-01-21T07:58:57.959Z,964.82
2024-01-21T07:59:57.939Z,964.82
2024-01-21T08:00:58.041Z,964.81
2024-01-21T08:01:57.957Z,964.79
2024-01-21T08:02:57.898Z,964.85
2024-01-21T08:03:58.067Z,964.90
2024-01-21T08:04:57.873Z,964.78
2024-01-21T08:05:57.931Z,964.79
2024-01-21T08:06:58.672Z,964.83
2024-01-21T08:07:57.832Z,964.78
2024-01-21T08:08:57.826Z,964.82
2024-01-21T08:09:57.860Z,964.76
2024-01-21T08:10:57.791Z,964.74
2024-01-21T08:11:57.849Z,964.74
2024-01-21T08:12:57.830Z,964.72
2024-01-21T08:13:57.780Z,964.77
2024-01-21T08:14:57.733Z,964.77
2024-01-21T08:15:57.841Z,964.77
2024-01-21T08:16:58.656Z,964.81
2024-01-21T08:17:57.878Z,964.76
2024-01-21T08:18:57.931Z,964.77
2024-01-21T08:19:57.781Z,964.70
2024-01-21T08:20:58.659Z,964.70
2024-01-21T08:21:57.814Z,964.74
2024-01-21T08:22:57.630Z,964.71
2024-01-21T08:23:57.666Z,964.70
2024-01-21T08:24:57.637Z,964.77
2024-01-21T08:25:57.636Z,964.73
2024-01-21T08:26:57.584Z,964.81
2024-01-21T08:27:57.704Z,964.74
2024-01-21T08:28:57.568Z,964.83
2024-01-21T08:29:57.589Z,964.81
2024-01-21T08:30:57.612Z,964.75
2024-01-21T08:31:57.534Z,964.86
2024-01-21T08:32:57.601Z,964.75
2024-01-21T08:33:57.634Z,964.77
2024-01-21T08:34:57.636Z,964.69
2024-01-21T08:35:57.512Z,964.76
2024-01-21T08:36:58.288Z,964.72
2024-01-21T08:37:57.458Z,964.79
2024-01-21T08:38:57.429Z,964.73
2024-01-21T08:39:57.496Z,964.81
2024-01-21T08:40:57.400Z,964.84
2024-01-21T08:41:57.501Z,964.79
2024-01-21T08:42:57.506Z,964.81
2024-01-21T08:43:57.384Z,964.80
2024-01-21T08:44:57.350Z,964.85
2024-01-21T08:45:59.774Z,964.87
2024-01-21T08:46:58.153Z,964.93
2024-01-21T08:47:57.355Z,964.84
2024-01-21T08:48:57.374Z,964.85
2024-01-21T08:49:57.407Z,964.88
2024-01-21T08:50:57.273Z,964.87
2024-01-21T08:51:57.347Z,964.83
2024-01-21T08:52:57.246Z,964.78
2024-01-21T08:53:57.231Z,964.84
2024-01-21T08:54:57.307Z,964.80
2024-01-21T08:55:57.244Z,964.78
2024-01-21T08:56:57.185Z,964.81
2024-01-21T08:57:57.251Z,964.83
2024-01-21T08:58:57.208Z,964.72
2024-01-21T08:59:57.162Z,964.76
2024-01-21T09:00:57.192Z,964.73
2024-01-21T09:01:57.203Z,964.71
2024-01-21T09:02:57.161Z,964.74
2024-01-21T09:03:57.208Z,964.77
2024-01-21T09:04:57.197Z,964.70
2024-01-21T09:05:57.149Z,964.71
2024-01-21T09:06:57.087Z,964.75
2024-01-21T09:07:57.071Z,964.75
2024-01-21T09:08:57.042Z,964.81
2024-01-21T09:09:57.185Z,964.88
2024-01-21T09:10:57.009Z,964.80
2024-01-21T09:11:57.007Z,964.88
2024-01-21T09:12:57.005Z,964.85
2024-01-21T09:13:56.977Z,964.87
2024-01-21T09:14:56.950Z,964.89
2024-01-21T09:15:57.159Z,964.91
2024-01-21T09:16:56.965Z,964.86
2024-01-21T09:17:57.119Z,964.90
2024-01-21T09:18:56.971Z,964.87
2024-01-21T09:19:56.933Z,964.92
2024-01-21T09:20:56.883Z,964.93
2024-01-21T09:21:56.942Z,965.01
2024-01-21T09:22:56.931Z,965.10
2024-01-21T09:23:56.848Z,965.08
2024-01-21T09:24:56.908Z,965.05
2024-01-21T09:25:56.815Z,965.06
2024-01-21T09:26:56.790Z,965.09
2024-01-21T09:27:56.840Z,965.09
2024-01-21T09:28:56.814Z,965.11
2024-01-21T09:29:56.816Z,965.13
2024-01-21T09:30:56.833Z,965.20
2024-01-21T09:31:56.797Z,965.22
2024-01-21T09:32:56.799Z,965.23
2024-01-21T09:33:56.864Z,965.22
2024-01-21T09:34:56.861Z,965.21
2024-01-21T09:35:56.690Z,965.26
2024-01-21T09:36:57.711Z,965.25
2024-01-21T09:37:56.718Z,965.27
2024-01-21T09:38:56.644Z,965.27
2024-01-21T09:39:56.690Z,965.27
2024-01-21T09:40:56.617Z,965.24
2024-01-21T09:41:56.616Z,965.27
2024-01-21T09:42:56.892Z,965.27
2024-01-21T09:43:56.615Z,965.25
2024-01-21T09:44:56.561Z,965.29
2024-01-21T09:45:56.664Z,965.25
2024-01-21T09:46:57.160Z,965.25
2024-01-21T09:47:56.620Z,965.28
2024-01-21T09:48:56.584Z,965.28
2024-01-21T09:49:56.557Z,965.33
2024-01-21T09:50:56.475Z,965.33
2024-01-21T09:51:57.207Z,965.37
2024-01-21T09:52:56.451Z,965.37
2024-01-21T09:53:56.447Z,965.36
2024-01-21T09:54:56.464Z,965.35
2024-01-21T09:55:56.427Z,965.35
2024-01-21T09:56:56.433Z,965.38
2024-01-21T09:57:56.417Z,965.37
2024-01-21T09:58:56.429Z,965.42
2024-01-21T09:59:56.392Z,965.42
2024-01-21T10:00:56.424Z,965.42
2024-01-21T10:01:56.341Z,965.42
2024-01-21T10:02:56.342Z,965.38
2024-01-21T10:03:56.834Z,965.40
2024-01-21T10:04:56.387Z,965.36
2024-01-21T10:05:56.346Z,965.40
2024-01-21T10:06:56.323Z,965.38
2024-01-21T10:07:56.289Z,965.39
2024-01-21T10:08:56.274Z,965.39
2024-01-21T10:09:56.322Z,965.32
2024-01-21T10:10:56.220Z,965.30
2024-01-21T10:11:56.218Z,965.26
2024-01-21T10:12:56.266Z,965.24
2024-01-21T10:13:56.292Z,965.30
2024-01-21T10:14:58.436Z,965.28
2024-01-21T10:15:56.200Z,965.34
2024-01-21T10:16:57.196Z,965.33
2024-01-21T10:17:56.200Z,965.29
2024-01-21T10:18:56.263Z,965.29
2024-01-21T10:19:56.280Z,965.30
2024-01-21T10:20:57.469Z,965.30
2024-01-21T10:21:56.127Z,965.30
2024-01-21T10:22:56.176Z,965.25
2024-01-21T10:23:56.678Z,965.24
2024-01-21T10:24:56.102Z,965.21
2024-01-21T10:25:56.036Z,965.25
2024-01-21T10:26:57.364Z,965.24
2024-01-21T10:27:56.029Z,965.22
2024-01-21T10:28:56.027Z,965.26
2024-01-21T10:29:55.977Z,965.24
2024-01-21T10:30:56.077Z,965.20
2024-01-21T10:31:55.943Z,965.22
2024-01-21T10:32:58.291Z,965.20
2024-01-21T10:33:56.004Z,965.20
2024-01-21T10:34:56.039Z,965.16
2024-01-21T10:35:55.899Z,965.12
2024-01-21T10:36:55.964Z,965.12
2024-01-21T10:37:55.881Z,965.16
2024-01-21T10:38:55.834Z,965.10
2024-01-21T10:39:55.952Z,965.12
2024-01-21T10:40:55.852Z,965.11
2024-01-21T10:41:55.804Z,965.08
2024-01-21T10:42:55.862Z,965.08
2024-01-21T10:43:55.835Z,965.05
2024-01-21T10:44:55.791Z,965.03
2024-01-21T10:45:55.794Z,965.04
2024-01-21T10:46:56.683Z,965.03
2024-01-21T10:47:55.782Z,965.04
2024-01-21T10:48:55.809Z,965.03
2024-01-21T10:49:55.880Z,965.03
2024-01-21T10:50:56.688Z,965.06
2024-01-21T10:51:55.766Z,965.05
2024-01-21T10:52:55.645Z,965.06
2024-01-21T10:53:55.691Z,965.05
2024-01-21T10:54:56.257Z,965.03
2024-01-21T10:55:55.676Z,964.97
2024-01-21T10:56:55.632Z,964.96
2024-01-21T10:57:55.650Z,965.00
2024-01-21T10:58:55.592Z,964.97
2024-01-21T10:59:55.572Z,964.96
2024-01-21T11:00:55.651Z,964.94
2024-01-21T11:01:56.281Z,964.95
2024-01-21T11:02:55.524Z,964.90
2024-01-21T11:03:55.581Z,964.91
2024-01-21T11:04:55.536Z,964.87
2024-01-21T11:05:55.614Z,964.85
2024-01-21T11:06:55.585Z,964.79
2024-01-21T11:07:55.459Z,964.81
2024-01-21T11:08:55.456Z,964.80
2024-01-21T11:09:55.489Z,964.75
2024-01-21T11:10:55.438Z,964.73
2024-01-21T11:11:56.697Z,964.77
2024-01-21T11:12:55.502Z,964.79
2024-01-21T11:13:55.382Z,964.86
2024-01-21T11:14:55.369Z,964.83
2024-01-21T11:15:55.456Z,964.82
2024-01-21T11:16:55.339Z,964.87
2024-01-21T11:17:55.345Z,964.84
2024-01-21T11:18:55.383Z,964.79
2024-01-21T11:19:55.580Z,964.84
2024-01-21T11:20:55.314Z,964.82
2024-01-21T11:21:55.367Z,964.78
2024-01-21T11:22:55.246Z,964.77
2024-01-21T11:23:55.250Z,964.75
2024-01-21T11:24:55.272Z,964.78
2024-01-21T11:25:55.489Z,964.76
2024-01-21T11:26:55.227Z,964.72
2024-01-21T11:27:55.234Z,964.67
2024-01-21T11:28:55.174Z,964.71
2024-01-21T11:29:55.194Z,964.69
2024-01-21T11:30:55.240Z,964.69
2024-01-21T11:31:55.211Z,964.63
2024-01-21T11:32:55.207Z,964.73
2024-01-21T11:33:57.434Z,964.70
2024-01-21T11:34:55.119Z,964.67
2024-01-21T11:35:55.134Z,964.67
2024-01-21T11:36:55.193Z,964.62
2024-01-21T11:37:55.098Z,964.60
2024-01-21T11:38:55.062Z,964.61
2024-01-21T11:39:55.070Z,964.58
2024-01-21T11:40:55.014Z,964.57
2024-01-21T11:41:55.012Z,964.61
2024-01-21T11:42:55.045Z,964.61
2024-01-21T11:43:54.991Z,964.59
2024-01-21T11:44:54.965Z,964.56
2024-01-21T11:45:55.025Z,964.52
2024-01-21T11:46:54.944Z,964.53
2024-01-21T11:47:54.996Z,964.53
2024-01-21T11:50:22.705Z,964.52
2024-01-21T11:50:28.041Z,964.51
2024-01-21T11:51:28.106Z,964.53
2024-01-21T11:52:28.041Z,964.50
2024-01-21T11:53:28.026Z,964.52
2024-01-21T11:54:28.019Z,964.50
2024-01-21T11:55:27.989Z,964.51
2024-01-21T11:56:27.956Z,964.49
2024-01-21T11:57:27.992Z,964.52
2024-01-21T11:58:28.006Z,964.53
2024-01-21T11:59:27.970Z,964.49
2024-01-21T12:00:27.946Z,964.52
2024-01-21T12:01:28.091Z,964.52
2024-01-21T12:02:28.149Z,964.47
2024-01-21T12:03:27.891Z,964.53
2024-01-21T12:04:27.907Z,964.50
2024-01-21T12:05:27.867Z,964.48
2024-01-21T12:06:27.893Z,964.44
2024-01-21T12:07:27.836Z,964.43
2024-01-21T12:08:27.808Z,964.47
2024-01-21T12:09:27.829Z,964.43
2024-01-21T12:10:27.765Z,964.41
2024-01-21T12:11:27.762Z,964.42
2024-01-21T12:12:27.778Z,964.40
2024-01-21T12:13:27.743Z,964.41
2024-01-21T12:14:27.737Z,964.37
2024-01-21T12:15:27.756Z,964.37
2024-01-21T12:16:27.712Z,964.40
2024-01-21T12:17:27.701Z,964.40
2024-01-21T12:18:27.750Z,964.36
2024-01-21T12:19:27.771Z,964.39
2024-01-21T12:20:27.722Z,964.39
2024-01-21T12:21:27.672Z,964.34
2024-01-21T12:22:27.631Z,964.29
2024-01-21T12:23:27.595Z,964.31
2024-01-21T12:24:28.172Z,964.31
2024-01-21T12:25:27.563Z,964.31
2024-01-21T12:26:27.604Z,964.28
2024-01-21T12:27:27.542Z,964.23
2024-01-21T12:28:27.524Z,964.32